Archival Weather

General Ignacio P Garcia Intl

General Ignacio P Garcia Intl, Mexico (MMHO)

Report from: Tuesday, September 19, 2023 12:41 PM CST
Current time: Monday, June 17, 2024 4:58 AM CST

Current weather – Weather history – Daily summaries
Weather forecast

Temperature38.0°C (100.4°F)
Heat index37.3°C (99.1°F)
Dew point13.0°C (55.4°F)
Winds 5 kts (2.6 m/s, 5.8 mph) South (170°)
Visibility10 mi. (16.1 km)
Clouds Sky clear
Altimeter29.87 in.Hg (1012 mB)
Relative humidity23 %
Density altitude2,863 ft. (872 m)
Flight conditions Visual Meteorological Conditions
Raw dataMMHO 191841Z 17005KT 10SM SKC 38/13 A2987 RMK HZY
An error has occurred. This application may no longer respond until reloaded. Reload 🗙